Patch Grove, WI (53817)

5:54 PM CDT on March 26, 2017 (GMT -0500)
Millville | | Change Station

Elev 702 ft 43.02 °N, 90.94 °W | Updated 8 seconds ago

Overcast
Overcast
45.1 °F
Feels Like 45 °F
N
0.0
Wind Variable Wind from ENE

Today
High -- | Low -- °F
--% Chance of Precip.
Yesterday
High -- | Low -- °F
Precip. -- in
Pressure 29.86 in
Visibility 10.0 miles
Clouds Overcast 700 ft
Windchill 45 °F
Dew Point 42 °F
Humidity 89%
Rainfall 0.38 in
Snow Depth Not available.
6:56 AM 7:23 PM
Waning Crescent, 2% visible
METAR KPDC 262235Z AUTO 30006KT 10SM OVC007 07/06 A2986 RMK AO2 T00670055
Pressure 29.86 in
Visibility 10.0 miles
Clouds Overcast 700 ft
Windchill 45 °F
Dew Point 42 °F
Humidity 89%
Rainfall 0.38 in
Snow Depth Not available.
6:56 AM 7:23 PM
Waning Crescent, 2% visible
METAR KPDC 262235Z AUTO 30006KT 10SM OVC007 07/06 A2986 RMK AO2 T00670055

Get Severe Weather Alerts

Thanks for signing up!

Be on the lookout for a verification email in your inbox.

You'll start receiving the daily forecast at 8 AM.

×

10-Day Weather Forecast

Almanac

Astronomy

Mar. 26, 2017 Rise Set
Actual Time
Civil Twilight
Nautical Twilight
Astronomical Twilight
Moon
Length of Visible Light
Length of Day
Tomorrow will be .
, % of the Moon is Illuminated

Today's Extremes

State Highs State Lows

Community

WunderPhotos

Upload Photos

1,962,540 photos uploaded!

WunderBlog® & News

Nearby

Air Quality

  Air Quality AQ Index Pollutant
Not available.

Snow Depth

Station Depth Elevation

Earthquake Activity

City Distance Mag. Time & Date
Minimum magnitude displayed is 2.5.

Earthquake Activity

City Distance Mag. Time & Date
Minimum magnitude displayed is 2.5.

Coastal Water Temperatures

Place Temperature

Stations

Nearby Weather Stations

Station Location Temp. Windchill Dew Point Humidity Wind Precip. Elev Updated Type
                   

Watches & Warnings

There are currently no watches in effect.